Time;durP1;ratioP1;P1;durP2;ratioP2;P2;SDS_P1;SDS_P2;PMS_P1;PMS_P2;Temp;Humidity;BMP_temperature;BMP_pressure;BME280_temperature;BME280_humidity;BME280_pressure;Samples;Min_cycle;Max_cycle;Signal;HPM_P1;HPM_P2
2024/01/13 00:02:24;;;;;;;35.42;15.52;;;-2.30;99.90;;;;;;4975754;28;20203;-70
2024/01/13 00:04:52;;;;;;;37.65;15.40;;;-2.40;99.90;;;;;;4968831;28;20228;-69
2024/01/13 00:07:20;;;;;;;34.42;15.27;;;-2.50;99.90;;;;;;4968697;28;20200;-69
2024/01/13 00:09:48;;;;;;;39.03;16.95;;;-2.40;99.90;;;;;;4972172;28;20203;-69
2024/01/13 00:12:16;;;;;;;38.17;15.70;;;-2.40;99.90;;;;;;4971433;28;20262;-70
2024/01/13 00:14:44;;;;;;;40.40;16.35;;;-2.40;99.90;;;;;;4968967;28;20212;-70
2024/01/13 00:17:12;;;;;;;29.90;14.25;;;-2.40;99.90;;;;;;4974659;28;20218;-69
2024/01/13 00:19:41;;;;;;;39.75;16.67;;;-2.50;99.90;;;;;;4977960;28;20256;-69
2024/01/13 00:22:10;;;;;;;44.90;17.08;;;-2.60;99.90;;;;;;4976748;28;20207;-68
2024/01/13 00:24:38;;;;;;;39.67;15.52;;;-2.60;99.90;;;;;;4968356;28;20234;-70
2024/01/13 00:27:06;;;;;;;37.17;14.27;;;-2.60;99.90;;;;;;4968202;28;20208;-70
2024/01/13 00:29:34;;;;;;;33.53;14.60;;;-2.60;99.90;;;;;;4968337;28;20722;-69
2024/01/13 00:32:02;;;;;;;32.72;14.50;;;-2.60;99.90;;;;;;4967924;28;20207;-71
2024/01/13 00:34:30;;;;;;;40.60;14.90;;;-2.70;99.90;;;;;;4967993;28;20225;-69
2024/01/13 00:36:59;;;;;;;42.60;17.00;;;-2.70;99.90;;;;;;4968419;28;20234;-70
2024/01/13 00:39:27;;;;;;;42.72;16.83;;;-2.70;99.90;;;;;;4967309;28;20255;-69
2024/01/13 00:41:55;;;;;;;41.20;16.48;;;-2.70;99.90;;;;;;4967753;28;20203;-69
2024/01/13 00:44:23;;;;;;;51.20;21.13;;;-2.70;99.90;;;;;;4967611;28;20686;-69
2024/01/13 00:46:51;;;;;;;39.20;17.13;;;-2.70;99.90;;;;;;4964639;28;20271;-69
2024/01/13 00:49:19;;;;;;;43.78;17.15;;;-2.80;99.90;;;;;;4975060;28;20240;-70
2024/01/13 00:51:47;;;;;;;45.80;17.17;;;-2.70;99.90;;;;;;4979516;28;20203;-68
2024/01/13 00:54:17;;;;;;;41.38;16.15;;;-2.70;99.90;;;;;;4978428;28;20578;-70
2024/01/13 00:56:45;;;;;;;42.42;18.45;;;-2.70;99.90;;;;;;4968909;28;20229;-69
2024/01/13 00:59:13;;;;;;;40.97;15.77;;;-2.60;99.90;;;;;;4969570;28;20212;-70
2024/01/13 01:01:40;;;;;;;48.83;14.60;;;-2.60;99.90;;;;;;4968454;28;20282;-69
2024/01/13 01:04:08;;;;;;;38.53;14.68;;;-2.70;99.90;;;;;;4969358;28;20317;-69
2024/01/13 01:06:36;;;;;;;42.00;16.83;;;-2.70;99.90;;;;;;4969448;28;20847;-69
2024/01/13 01:09:06;;;;;;;37.28;14.80;;;-2.70;99.90;;;;;;4969656;28;20211;-70
2024/01/13 01:11:35;;;;;;;46.78;16.38;;;-2.80;99.90;;;;;;4969148;28;20591;-68
2024/01/13 01:14:03;;;;;;;40.08;17.90;;;-2.70;99.90;;;;;;4969435;28;20288;-69
2024/01/13 01:16:31;;;;;;;39.45;17.15;;;-2.70;99.90;;;;;;4969174;28;20211;-69
2024/01/13 01:18:59;;;;;;;40.92;16.75;;;-2.70;99.90;;;;;;4969375;28;20682;-70
2024/01/13 01:21:27;;;;;;;37.50;16.45;;;-2.60;99.90;;;;;;4969314;28;20560;-69
2024/01/13 01:23:55;;;;;;;32.85;15.40;;;-2.60;99.90;;;;;;4969440;28;20306;-69
2024/01/13 01:26:23;;;;;;;37.60;15.65;;;-2.50;99.90;;;;;;4969391;28;20636;-69
2024/01/13 01:28:53;;;;;;;39.50;16.45;;;-2.60;99.90;;;;;;4969021;28;20599;-70
2024/01/13 01:31:20;;;;;;;36.22;14.18;;;-2.50;99.90;;;;;;4968748;28;20226;-68
2024/01/13 01:33:48;;;;;;;43.80;15.55;;;-2.60;99.90;;;;;;4968876;28;20254;-69
2024/01/13 01:36:17;;;;;;;46.60;19.17;;;-2.60;99.90;;;;;;4968872;28;20307;-69
2024/01/13 01:38:45;;;;;;;36.17;15.63;;;-2.70;99.90;;;;;;4968909;28;20281;-69
2024/01/13 01:41:14;;;;;;;44.20;16.23;;;-2.60;99.90;;;;;;4968714;28;20639;-69
2024/01/13 01:43:45;;;;;;;39.15;15.02;;;-2.50;99.90;;;;;;4968413;28;20271;-69
2024/01/13 01:46:14;;;;;;;42.25;15.75;;;-2.70;99.90;;;;;;4968682;28;20216;-69
2024/01/13 01:48:44;;;;;;;39.55;16.55;;;-2.70;99.90;;;;;;4968719;28;20644;-69
2024/01/13 01:51:15;;;;;;;40.47;16.80;;;-2.70;99.90;;;;;;4968010;28;20211;-68
2024/01/13 01:53:44;;;;;;;41.05;16.17;;;-2.80;99.90;;;;;;4968496;28;20382;-69
2024/01/13 01:56:15;;;;;;;40.50;16.75;;;-2.80;99.90;;;;;;4969129;28;20225;-69
2024/01/13 01:58:43;;;;;;;34.47;15.02;;;-2.70;99.90;;;;;;4968925;28;20222;-68
2024/01/13 02:01:11;;;;;;;36.63;15.80;;;-2.70;99.90;;;;;;4968364;28;20319;-69
2024/01/13 02:03:41;;;;;;;39.88;16.85;;;-2.70;99.90;;;;;;4968556;28;20207;-69
2024/01/13 02:06:10;;;;;;;48.17;19.55;;;-2.70;99.90;;;;;;4968434;28;20246;-69
2024/01/13 02:08:38;;;;;;;42.92;16.75;;;-2.70;99.90;;;;;;4968363;28;20207;-69
2024/01/13 02:11:10;;;;;;;40.78;16.60;;;-2.80;99.90;;;;;;4968288;28;20274;-69
2024/01/13 02:13:39;;;;;;;43.28;17.40;;;-2.70;99.90;;;;;;4968426;28;20753;-69
2024/01/13 02:16:09;;;;;;;46.78;18.48;;;-2.70;99.90;;;;;;4968499;28;20204;-69
2024/01/13 02:18:37;;;;;;;43.65;16.77;;;-2.60;99.90;;;;;;4968335;28;20330;-69
2024/01/13 02:21:11;;;;;;;45.45;15.68;;;-2.70;99.90;;;;;;4967812;28;20214;-69
2024/01/13 02:23:44;;;;;;;42.50;16.63;;;-2.60;99.90;;;;;;4968136;28;20339;-68
2024/01/13 02:26:12;;;;;;;43.78;18.60;;;-2.60;99.90;;;;;;4968359;28;20238;-69
2024/01/13 02:28:40;;;;;;;40.88;16.63;;;-2.50;99.90;;;;;;4970874;28;20200;-69
2024/01/13 02:31:15;;;;;;;38.28;16.52;;;-2.60;99.90;;;;;;4987617;28;20295;-69
2024/01/13 02:33:48;;;;;;;46.28;18.75;;;-2.50;99.90;;;;;;4973399;28;20288;-69
2024/01/13 02:36:17;;;;;;;39.38;16.55;;;-2.50;99.90;;;;;;4968717;28;20238;-69
2024/01/13 02:38:46;;;;;;;47.25;17.58;;;-2.50;99.90;;;;;;4960849;28;20216;-69
2024/01/13 02:41:15;;;;;;;36.92;15.45;;;-2.50;99.90;;;;;;4968303;28;20315;-69
2024/01/13 02:43:42;;;;;;;46.03;18.00;;;-2.60;99.90;;;;;;4977324;28;20326;-68
2024/01/13 02:46:10;;;;;;;42.97;16.88;;;-2.50;99.90;;;;;;4986206;28;20232;-68
2024/01/13 02:48:41;;;;;;;37.55;16.63;;;-2.50;99.90;;;;;;4973658;28;20253;-69
2024/01/13 02:51:13;;;;;;;39.30;14.15;;;-2.50;99.90;;;;;;4986528;28;20864;-69
2024/01/13 02:53:42;;;;;;;43.30;15.38;;;-2.60;99.90;;;;;;4968805;28;20218;-69
2024/01/13 02:56:12;;;;;;;37.25;17.58;;;-2.50;99.90;;;;;;4968689;28;20213;-69
2024/01/13 02:58:40;;;;;;;37.30;14.63;;;-2.50;99.90;;;;;;4968578;28;20266;-68
2024/01/13 03:01:13;;;;;;;36.78;14.32;;;-2.50;99.90;;;;;;4968189;28;20208;-69
2024/01/13 03:03:44;;;;;;;38.58;16.02;;;-2.60;99.90;;;;;;4968758;28;20288;-69
2024/01/13 03:06:12;;;;;;;34.33;15.40;;;-2.70;99.90;;;;;;4968420;28;20780;-68
2024/01/13 03:08:41;;;;;;;41.85;14.85;;;-2.60;99.90;;;;;;4968443;28;20322;-69
2024/01/13 03:11:12;;;;;;;39.45;15.30;;;-2.70;99.90;;;;;;4968137;28;20938;-68
2024/01/13 03:13:43;;;;;;;31.20;13.40;;;-2.60;99.90;;;;;;4968366;28;20231;-69
2024/01/13 03:16:12;;;;;;;34.65;15.32;;;-2.60;99.90;;;;;;4968610;28;20231;-69
2024/01/13 03:18:40;;;;;;;38.33;14.93;;;-2.60;99.90;;;;;;4968402;28;20220;-69
2024/01/13 03:21:12;;;;;;;34.75;13.07;;;-2.60;99.90;;;;;;4968219;28;20254;-70
2024/01/13 03:23:43;;;;;;;34.67;15.38;;;-2.60;99.90;;;;;;4968439;28;20217;-70
2024/01/13 03:26:14;;;;;;;34.33;14.23;;;-2.60;99.90;;;;;;4968299;28;20231;-69
2024/01/13 03:28:43;;;;;;;33.92;13.60;;;-2.60;99.90;;;;;;4966531;28;20559;-69
2024/01/13 03:31:13;;;;;;;35.72;13.48;;;-2.60;99.90;;;;;;4987461;28;20215;-69
2024/01/13 03:33:44;;;;;;;37.65;14.98;;;-2.60;99.90;;;;;;4973942;28;20231;-69
2024/01/13 03:36:13;;;;;;;34.38;13.32;;;-2.60;99.90;;;;;;4968466;28;20207;-69
2024/01/13 03:38:41;;;;;;;35.90;13.45;;;-2.70;99.90;;;;;;4968326;28;20208;-69
2024/01/13 03:41:15;;;;;;;35.17;15.27;;;-2.80;99.90;;;;;;4972096;28;20212;-70
2024/01/13 03:43:44;;;;;;;32.05;13.52;;;-2.80;99.90;;;;;;4971741;28;20686;-69
2024/01/13 03:46:13;;;;;;;35.65;13.90;;;-2.90;99.90;;;;;;4970607;28;20227;-69
2024/01/13 03:48:41;;;;;;;35.28;13.52;;;-2.90;99.90;;;;;;4966300;28;20212;-69
2024/01/13 03:51:10;;;;;;;29.92;12.23;;;-2.90;99.90;;;;;;4971875;28;20207;-69
2024/01/13 03:53:39;;;;;;;35.13;13.88;;;-2.90;99.90;;;;;;4972248;28;20342;-69
2024/01/13 03:56:08;;;;;;;33.60;13.38;;;-2.80;99.90;;;;;;4973661;28;20207;-69
2024/01/13 03:58:39;;;;;;;28.50;11.90;;;-2.70;99.90;;;;;;4967383;28;20212;-69
2024/01/13 04:01:08;;;;;;;35.03;12.70;;;-2.70;99.90;;;;;;4973453;28;20249;-69
2024/01/13 04:03:37;;;;;;;35.42;13.43;;;-2.60;99.90;;;;;;4973581;28;20698;-69
2024/01/13 04:06:06;;;;;;;29.10;13.55;;;-2.70;99.90;;;;;;4972967;28;20306;-68
2024/01/13 04:08:35;;;;;;;28.30;12.35;;;-2.60;99.90;;;;;;4972423;28;20258;-69
2024/01/13 04:11:07;;;;;;;28.50;11.75;;;-2.60;99.90;;;;;;4971906;28;20224;-69
2024/01/13 04:13:35;;;;;;;32.53;13.40;;;-2.60;99.90;;;;;;4971278;28;20215;-69
2024/01/13 04:16:05;;;;;;;27.42;12.23;;;-2.60;99.90;;;;;;4971272;28;20645;-68
2024/01/13 04:18:33;;;;;;;30.30;13.02;;;-2.60;99.90;;;;;;4972052;28;20211;-69
2024/01/13 04:21:01;;;;;;;29.50;11.80;;;-2.50;99.90;;;;;;4971622;28;20222;-70
2024/01/13 04:23:47;;;;;;;34.40;12.15;;;-2.50;99.90;;;;;;4971147;28;20258;-70
2024/01/13 04:26:15;;;;;;;27.58;12.50;;;-2.60;99.90;;;;;;4970779;28;20233;-70
2024/01/13 04:28:43;;;;;;;31.38;14.93;;;-2.60;99.90;;;;;;4970904;28;20231;-70
2024/01/13 04:31:12;;;;;;;28.52;13.07;;;-2.70;99.90;;;;;;4970650;28;20245;-69
2024/01/13 04:33:40;;;;;;;32.80;12.88;;;-2.60;99.90;;;;;;4970720;28;20620;-70
2024/01/13 04:36:08;;;;;;;32.40;13.68;;;-2.60;99.90;;;;;;4971013;28;20203;-70
2024/01/13 04:38:36;;;;;;;38.20;15.07;;;-2.60;99.90;;;;;;4970595;28;20263;-70
2024/01/13 04:41:04;;;;;;;36.92;14.50;;;-2.60;99.90;;;;;;4970384;28;20235;-70
2024/01/13 04:43:33;;;;;;;34.17;14.70;;;-2.50;99.90;;;;;;4986143;28;20219;-70
2024/01/13 04:46:01;;;;;;;29.50;13.95;;;-2.40;99.90;;;;;;4982516;28;20231;-70
2024/01/13 04:48:30;;;;;;;33.63;13.35;;;-2.60;99.90;;;;;;4970731;28;20208;-70
2024/01/13 04:50:58;;;;;;;32.63;14.27;;;-2.60;99.90;;;;;;4969487;28;20716;-70
2024/01/13 04:53:26;;;;;;;40.20;14.70;;;-2.40;99.90;;;;;;4970316;28;20212;-69
2024/01/13 04:55:54;;;;;;;32.60;13.98;;;-2.40;99.90;;;;;;4970432;28;20764;-69
2024/01/13 04:58:22;;;;;;;37.90;15.02;;;-2.40;99.90;;;;;;4970492;28;20363;-70
2024/01/13 05:00:50;;;;;;;33.88;14.95;;;-2.40;99.90;;;;;;4970494;28;20258;-69
2024/01/13 05:03:18;;;;;;;38.42;13.93;;;-2.50;99.90;;;;;;4970310;28;20258;-70
2024/01/13 05:05:48;;;;;;;32.42;12.88;;;-2.40;99.90;;;;;;4970053;28;20228;-69
2024/01/13 05:08:16;;;;;;;34.72;13.75;;;-2.40;99.90;;;;;;4969670;28;20208;-70
2024/01/13 05:10:44;;;;;;;36.33;12.63;;;-2.40;99.90;;;;;;4969115;28;20195;-69
2024/01/13 05:13:12;;;;;;;32.97;13.50;;;-2.30;99.90;;;;;;4969997;28;20313;-69
2024/01/13 05:15:40;;;;;;;32.35;12.40;;;-2.30;99.90;;;;;;4969973;28;20294;-69
2024/01/13 05:18:08;;;;;;;35.88;14.50;;;-2.30;99.90;;;;;;4969760;28;20565;-69
2024/01/13 05:20:37;;;;;;;29.90;12.60;;;-2.30;99.90;;;;;;4969636;28;20211;-69
2024/01/13 05:23:07;;;;;;;28.63;13.25;;;-2.30;99.90;;;;;;4969885;28;20212;-69
2024/01/13 05:25:35;;;;;;;37.65;13.68;;;-2.40;99.90;;;;;;4969736;28;20453;-68
2024/01/13 05:28:04;;;;;;;36.55;14.50;;;-2.40;99.90;;;;;;4969625;28;20224;-69
2024/01/13 05:30:33;;;;;;;34.00;14.98;;;-2.50;99.90;;;;;;4969512;28;20298;-70
2024/01/13 05:33:02;;;;;;;31.30;13.50;;;-2.50;99.90;;;;;;4969850;28;20641;-69
2024/01/13 05:35:30;;;;;;;31.27;13.73;;;-2.50;99.90;;;;;;4969568;28;20288;-70
2024/01/13 05:37:58;;;;;;;34.75;13.30;;;-2.60;99.90;;;;;;4969715;28;20210;-69
2024/01/13 05:40:27;;;;;;;30.08;11.30;;;-2.50;99.90;;;;;;4968922;28;20217;-70
2024/01/13 05:42:55;;;;;;;33.75;13.70;;;-2.50;99.90;;;;;;4969057;28;20306;-69
2024/01/13 05:45:23;;;;;;;30.63;13.52;;;-2.40;99.90;;;;;;4969407;28;20263;-69
2024/01/13 05:47:51;;;;;;;33.22;12.52;;;-2.40;99.90;;;;;;4969244;28;20736;-69
2024/01/13 05:50:20;;;;;;;32.20;12.50;;;-2.50;99.90;;;;;;4969193;28;20250;-69
2024/01/13 05:52:47;;;;;;;34.88;12.25;;;-2.50;99.90;;;;;;4969107;28;20305;-68
2024/01/13 05:55:15;;;;;;;26.83;12.60;;;-2.70;99.90;;;;;;4969204;28;20952;-69
2024/01/13 05:57:45;;;;;;;34.50;14.05;;;-2.70;99.90;;;;;;4969303;28;20303;-68
2024/01/13 06:00:14;;;;;;;35.45;13.95;;;-2.70;99.90;;;;;;4968738;28;20207;-70
2024/01/13 06:02:43;;;;;;;37.45;15.90;;;-2.60;99.90;;;;;;4969636;28;20218;-68
2024/01/13 06:05:11;;;;;;;37.30;15.15;;;-2.60;99.90;;;;;;4968716;28;20683;-68
2024/01/13 06:07:40;;;;;;;33.30;13.82;;;-2.70;99.90;;;;;;4968131;28;20239;-69
2024/01/13 06:10:11;;;;;;;29.45;13.15;;;-2.60;99.90;;;;;;4968614;28;21098;-70
2024/01/13 06:12:40;;;;;;;36.25;16.35;;;-2.50;99.90;;;;;;4969209;28;20247;-69
2024/01/13 06:15:10;;;;;;;31.45;13.43;;;-2.50;99.90;;;;;;4968949;28;20250;-69
2024/01/13 06:17:38;;;;;;;32.08;12.65;;;-2.50;99.90;;;;;;4969290;28;20244;-69
2024/01/13 06:20:08;;;;;;;34.15;15.38;;;-2.60;99.90;;;;;;4968788;28;20223;-69
2024/01/13 06:22:36;;;;;;;29.13;12.55;;;-2.50;99.90;;;;;;4968993;28;20219;-68
2024/01/13 06:25:05;;;;;;;32.42;12.63;;;-2.50;99.90;;;;;;4969017;28;20658;-68
2024/01/13 06:27:33;;;;;;;33.75;12.38;;;-2.60;99.90;;;;;;4968999;28;20236;-70
2024/01/13 06:30:02;;;;;;;34.63;12.55;;;-2.70;99.90;;;;;;4968772;28;20752;-70
2024/01/13 06:32:33;;;;;;;34.70;12.50;;;-2.80;99.90;;;;;;4969361;28;20668;-69
2024/01/13 06:35:02;;;;;;;35.25;13.50;;;-2.80;99.90;;;;;;4969142;28;20238;-68
2024/01/13 06:37:30;;;;;;;36.20;13.35;;;-2.80;99.90;;;;;;4969033;28;20210;-70
2024/01/13 06:39:58;;;;;;;32.05;12.05;;;-2.80;99.90;;;;;;4968555;28;20726;-69
2024/01/13 06:42:26;;;;;;;31.83;11.70;;;-2.70;99.90;;;;;;4969119;28;20219;-69
2024/01/13 06:44:54;;;;;;;32.28;12.50;;;-2.70;99.90;;;;;;4969208;28;20231;-69
2024/01/13 06:47:22;;;;;;;33.45;13.35;;;-2.80;99.90;;;;;;4968862;28;20219;-69
2024/01/13 06:49:52;;;;;;;31.60;12.30;;;-2.80;99.90;;;;;;4968377;28;20302;-67
2024/01/13 06:52:20;;;;;;;33.38;14.02;;;-2.80;99.90;;;;;;4968353;28;20708;-69
2024/01/13 06:54:48;;;;;;;39.28;14.68;;;-2.80;99.90;;;;;;4968493;28;20717;-69
2024/01/13 06:57:16;;;;;;;31.60;13.27;;;-2.70;99.90;;;;;;4968862;28;20243;-69
2024/01/13 06:59:45;;;;;;;34.70;14.13;;;-2.70;99.90;;;;;;4968390;28;20208;-69
2024/01/13 07:02:13;;;;;;;28.58;13.02;;;-2.70;99.90;;;;;;4968390;28;20207;-69
2024/01/13 07:04:42;;;;;;;38.47;14.80;;;-2.70;99.90;;;;;;4968704;28;20228;-69
2024/01/13 07:07:11;;;;;;;32.00;13.27;;;-2.70;99.90;;;;;;4968528;28;20231;-70
2024/01/13 07:09:39;;;;;;;30.60;13.07;;;-2.60;99.90;;;;;;4967757;28;20210;-69
2024/01/13 07:12:07;;;;;;;32.95;13.13;;;-2.60;99.90;;;;;;4967261;28;20318;-68
2024/01/13 07:14:35;;;;;;;29.60;13.50;;;-2.40;99.90;;;;;;4968885;28;20226;-68
2024/01/13 07:17:04;;;;;;;34.75;13.18;;;-2.40;99.90;;;;;;4971662;28;20215;-69
2024/01/13 07:19:34;;;;;;;38.08;13.00;;;-2.40;99.90;;;;;;4971128;28;20227;-69
2024/01/13 07:22:02;;;;;;;31.45;13.65;;;-2.50;99.90;;;;;;4971101;28;20211;-69
2024/01/13 07:24:31;;;;;;;33.58;11.70;;;-2.60;99.90;;;;;;4971312;28;20230;-69
2024/01/13 07:26:59;;;;;;;30.58;13.73;;;-2.50;99.90;;;;;;4971377;28;20624;-69
2024/01/13 07:29:27;;;;;;;30.98;13.10;;;-2.50;99.90;;;;;;4971017;28;20290;-69
2024/01/13 07:31:55;;;;;;;30.10;12.27;;;-2.40;99.90;;;;;;4970908;28;20895;-70
2024/01/13 07:34:23;;;;;;;44.92;14.88;;;-2.40;99.90;;;;;;4971384;28;20436;-69
2024/01/13 07:36:52;;;;;;;33.78;13.52;;;-2.40;99.90;;;;;;4971263;28;20211;-69
2024/01/13 07:39:19;;;;;;;36.03;14.05;;;-2.30;99.90;;;;;;4971357;28;20267;-69
2024/01/13 07:41:53;;;;;;;31.73;12.65;;;-2.10;99.90;;;;;;4971715;28;20218;-70
2024/01/13 07:44:21;;;;;;;24.23;9.35;;;-2.10;99.90;;;;;;4971620;28;20231;-70
2024/01/13 07:46:49;;;;;;;28.27;10.15;;;-2.20;99.90;;;;;;4976764;28;20226;-69
2024/01/13 07:49:16;;;;;;;25.90;9.27;;;-2.10;99.90;;;;;;4986443;28;20337;-69
2024/01/13 07:51:49;;;;;;;27.52;11.75;;;-2.10;99.90;;;;;;4988028;28;20199;-69
2024/01/13 07:54:17;;;;;;;28.77;12.52;;;-2.20;99.90;;;;;;4981821;28;20252;-69
2024/01/13 07:56:46;;;;;;;30.85;11.88;;;-2.20;99.90;;;;;;4972135;28;20214;-70
2024/01/13 07:59:16;;;;;;;28.00;10.82;;;-2.20;99.90;;;;;;4971741;28;20250;-70
2024/01/13 08:01:44;;;;;;;31.13;12.57;;;-2.20;99.90;;;;;;4972201;28;20215;-69
2024/01/13 08:04:13;;;;;;;32.90;11.23;;;-2.10;99.90;;;;;;4971125;28;20250;-68
2024/01/13 08:06:41;;;;;;;33.15;10.95;;;-2.00;99.90;;;;;;4989981;28;20307;-68
2024/01/13 08:09:09;;;;;;;27.50;10.45;;;-2.10;99.90;;;;;;4982385;28;20228;-69
2024/01/13 08:11:37;;;;;;;33.92;13.98;;;-2.10;99.90;;;;;;4971333;28;20223;-69
2024/01/13 08:14:09;;;;;;;35.40;14.00;;;-2.10;99.90;;;;;;4971449;28;20231;-69
2024/01/13 08:16:39;;;;;;;34.83;14.13;;;-2.00;99.90;;;;;;4971442;28;20579;-69
2024/01/13 08:19:07;;;;;;;29.00;12.10;;;-1.90;99.90;;;;;;4970966;28;20242;-69
2024/01/13 08:21:35;;;;;;;26.15;9.32;;;-1.90;99.90;;;;;;4970863;28;20227;-68
2024/01/13 08:24:08;;;;;;;30.08;12.73;;;-2.00;99.90;;;;;;4971131;28;20228;-69
2024/01/13 08:26:39;;;;;;;29.75;10.15;;;-2.00;99.90;;;;;;4970043;28;20216;-68
2024/01/13 08:29:08;;;;;;;25.98;9.63;;;-2.00;99.90;;;;;;4970655;28;20239;-69
2024/01/13 08:31:35;;;;;;;21.92;9.50;;;-2.00;99.90;;;;;;4970718;28;20720;-69
2024/01/13 08:34:10;;;;;;;25.17;9.98;;;-2.00;99.90;;;;;;4969793;28;20226;-69
2024/01/13 08:36:41;;;;;;;18.77;7.18;;;-2.10;99.90;;;;;;4971010;28;20199;-70
2024/01/13 08:39:10;;;;;;;19.88;6.10;;;-2.00;99.90;;;;;;4974826;28;20192;-70
2024/01/13 08:41:38;;;;;;;21.05;9.43;;;-1.90;99.90;;;;;;4986340;28;20208;-69
2024/01/13 08:44:06;;;;;;;13.45;4.80;;;-1.80;99.90;;;;;;4970855;28;20247;-68
2024/01/13 08:46:34;;;;;;;19.08;5.80;;;-1.70;99.90;;;;;;4971187;28;20228;-69
2024/01/13 08:49:04;;;;;;;17.35;7.05;;;-1.70;99.90;;;;;;4970309;28;20223;-69
2024/01/13 08:51:34;;;;;;;16.83;5.57;;;-1.70;99.90;;;;;;4968903;28;20293;-69
2024/01/13 08:54:04;;;;;;;16.88;5.22;;;-1.70;99.90;;;;;;4979079;28;20228;-68
2024/01/13 08:56:36;;;;;;;19.02;6.18;;;-1.60;99.90;;;;;;4962722;28;20598;-68
2024/01/13 08:59:06;;;;;;;14.50;4.80;;;-1.60;99.90;;;;;;4970563;28;20212;-69
2024/01/13 09:01:35;;;;;;;14.52;4.63;;;-1.50;99.90;;;;;;4970312;28;20207;-69
2024/01/13 09:04:06;;;;;;;13.52;4.13;;;-1.50;99.90;;;;;;4970330;28;20242;-69
2024/01/13 09:06:36;;;;;;;14.15;5.43;;;-1.50;99.90;;;;;;4970544;28;20299;-69
2024/01/13 09:09:04;;;;;;;13.20;4.63;;;-1.50;99.90;;;;;;4970236;28;20228;-70
2024/01/13 09:11:34;;;;;;;11.68;4.47;;;-1.50;99.90;;;;;;4970608;28;20216;-68
2024/01/13 09:14:11;;;;;;;13.77;4.95;;;-1.50;99.90;;;;;;4970384;28;20230;-69
2024/01/13 09:16:42;;;;;;;13.50;4.75;;;-1.50;99.90;;;;;;4970774;28;20212;-69
2024/01/13 09:19:10;;;;;;;13.48;5.38;;;-1.50;99.90;;;;;;4970004;28;20689;-69
2024/01/13 09:21:41;;;;;;;18.23;5.15;;;-1.40;99.90;;;;;;4969718;28;20255;-69
2024/01/13 09:24:13;;;;;;;16.25;6.03;;;-1.30;99.90;;;;;;4969809;28;20219;-69
2024/01/13 09:26:42;;;;;;;18.80;6.20;;;-1.40;99.90;;;;;;4970311;28;20291;-69
2024/01/13 09:29:15;;;;;;;18.02;5.05;;;-1.50;99.90;;;;;;4969875;28;20224;-69
2024/01/13 09:31:44;;;;;;;14.45;5.53;;;-1.50;99.90;;;;;;4969790;28;20204;-69
2024/01/13 09:34:12;;;;;;;14.95;4.80;;;-1.60;99.90;;;;;;4969414;28;20773;-69
2024/01/13 09:36:44;;;;;;;17.40;5.80;;;-1.50;99.90;;;;;;4969797;28;20242;-70
2024/01/13 09:39:19;;;;;;;14.18;4.53;;;-1.60;99.90;;;;;;4969787;28;20207;-69
2024/01/13 09:41:48;;;;;;;13.63;5.38;;;-1.60;99.90;;;;;;4969411;28;20212;-69
2024/01/13 09:44:21;;;;;;;13.48;5.88;;;-1.60;99.90;;;;;;4969429;28;20227;-70
2024/01/13 09:46:51;;;;;;;17.45;5.53;;;-1.60;99.90;;;;;;4969556;28;20208;-69
2024/01/13 09:49:20;;;;;;;16.77;5.78;;;-1.50;99.90;;;;;;4969391;28;20232;-69
2024/01/13 09:51:50;;;;;;;15.93;5.28;;;-1.50;99.90;;;;;;4969234;28;20214;-70
2024/01/13 09:54:24;;;;;;;14.38;4.93;;;-1.40;99.90;;;;;;4969771;28;20233;-69
2024/01/13 09:56:55;;;;;;;11.35;4.85;;;-1.40;99.90;;;;;;4969636;28;20215;-69
2024/01/13 09:59:28;;;;;;;15.40;5.72;;;-1.30;99.90;;;;;;4969111;28;20669;-69
2024/01/13 10:01:58;;;;;;;12.68;4.75;;;-1.30;99.90;;;;;;4969265;28;20230;-70
2024/01/13 10:04:27;;;;;;;13.95;5.00;;;-1.40;99.90;;;;;;4969020;28;20733;-69
2024/01/13 10:06:57;;;;;;;13.90;4.90;;;-1.50;99.90;;;;;;4969116;28;20630;-69
2024/01/13 10:09:26;;;;;;;12.88;4.57;;;-1.60;99.90;;;;;;4969121;28;20683;-69
2024/01/13 10:12:06;;;;;;;15.65;5.70;;;-1.60;99.90;;;;;;4973243;28;20238;-68
2024/01/13 10:14:38;;;;;;;14.27;4.63;;;-1.50;99.90;;;;;;4986784;28;20225;-70
2024/01/13 10:17:07;;;;;;;13.65;5.30;;;-1.30;99.90;;;;;;4987154;28;20601;-72
2024/01/13 10:19:37;;;;;;;13.10;5.57;;;-1.30;99.90;;;;;;4986162;28;20195;-70
2024/01/13 10:22:07;;;;;;;16.42;4.95;;;-1.30;99.90;;;;;;4986870;28;20650;-68
2024/01/13 10:24:36;;;;;;;14.77;6.15;;;-1.20;99.90;;;;;;4986941;28;20222;-70
2024/01/13 10:27:08;;;;;;;17.50;6.10;;;-1.20;99.90;;;;;;4987242;28;20214;-68
2024/01/13 10:29:36;;;;;;;17.50;6.47;;;-1.20;99.90;;;;;;4981061;28;20227;-69
2024/01/13 10:32:08;;;;;;;18.63;6.80;;;-1.30;99.90;;;;;;4985847;28;20203;-68
2024/01/13 10:34:36;;;;;;;20.58;8.57;;;-1.40;99.90;;;;;;4977850;28;20223;-67
2024/01/13 10:37:13;;;;;;;16.05;6.88;;;-1.60;99.90;;;;;;4985089;28;20824;-69
2024/01/13 10:39:41;;;;;;;21.92;7.93;;;-1.70;99.90;;;;;;4983993;28;20207;-67
2024/01/13 10:42:11;;;;;;;18.13;7.35;;;-1.80;99.90;;;;;;4970208;28;20212;-68
2024/01/13 10:44:43;;;;;;;17.05;6.50;;;-1.80;99.90;;;;;;4985345;28;20261;-70
2024/01/13 10:47:15;;;;;;;19.45;7.68;;;-1.90;99.90;;;;;;4975054;28;20202;-69
2024/01/13 10:49:47;;;;;;;18.08;7.47;;;-1.70;99.90;;;;;;4973318;28;20257;-77
2024/01/13 10:52:34;;;;;;;18.45;6.72;;;-1.60;99.90;;;;;;4971006;28;20204;-70
2024/01/13 10:55:04;;;;;;;14.75;6.63;;;-1.60;99.90;;;;;;4963956;28;20230;-70
2024/01/13 10:57:34;;;;;;;18.27;6.78;;;-1.40;99.90;;;;;;4972494;28;20675;-70
2024/01/13 11:00:04;;;;;;;14.73;6.30;;;-1.40;99.90;;;;;;4973602;28;20206;-68
2024/01/13 11:02:36;;;;;;;15.25;6.50;;;-1.50;99.90;;;;;;4976020;28;20925;-69
2024/01/13 11:05:05;;;;;;;16.08;6.90;;;-1.50;99.90;;;;;;4976881;28;20319;-69
2024/01/13 11:07:35;;;;;;;17.40;7.55;;;-1.50;99.90;;;;;;4976592;28;20210;-69
2024/01/13 11:10:09;;;;;;;17.60;6.50;;;-1.40;99.90;;;;;;4974804;28;20620;-69
2024/01/13 11:12:40;;;;;;;19.10;8.10;;;-1.40;99.90;;;;;;4973909;28;20301;-67
2024/01/13 11:15:15;;;;;;;19.45;6.95;;;-1.40;99.90;;;;;;4974228;28;20223;-67
2024/01/13 11:17:47;;;;;;;17.25;6.95;;;-1.50;99.90;;;;;;4972569;28;20613;-68
2024/01/13 11:20:18;;;;;;;16.50;7.35;;;-1.40;99.90;;;;;;4973692;28;20315;-70
2024/01/13 11:22:57;;;;;;;18.45;7.50;;;-1.40;99.90;;;;;;4975210;28;20738;-69
2024/01/13 11:25:26;;;;;;;18.60;6.90;;;-1.40;99.90;;;;;;4973381;28;20235;-69
2024/01/13 11:27:58;;;;;;;17.77;7.45;;;-1.30;99.90;;;;;;4985568;28;20222;-68
2024/01/13 11:30:37;;;;;;;15.93;6.97;;;-1.20;99.90;;;;;;4973502;28;20291;-69
2024/01/13 11:33:07;;;;;;;20.35;7.70;;;-1.20;99.90;;;;;;4977519;28;20207;-76
2024/01/13 11:35:35;;;;;;;17.38;8.50;;;-1.10;99.90;;;;;;4981694;28;20235;-73
2024/01/13 11:38:07;;;;;;;18.40;7.00;;;-1.10;99.90;;;;;;4982042;28;20277;-77
2024/01/13 11:40:35;;;;;;;22.48;9.00;;;-1.00;99.90;;;;;;4978816;28;20291;-78
2024/01/13 11:43:08;;;;;;;18.55;7.88;;;-0.90;99.90;;;;;;4984306;28;20207;-77
2024/01/13 11:45:42;;;;;;;18.63;7.63;;;-0.70;99.90;;;;;;4973534;28;20315;-77
2024/01/13 11:48:40;;;;;;;19.67;7.85;;;-0.70;99.90;;;;;;4977998;28;20229;-76
2024/01/13 11:51:12;;;;;;;16.38;7.15;;;-0.50;99.90;;;;;;4972308;28;20645;-77
2024/01/13 11:53:43;;;;;;;18.75;7.65;;;-0.60;99.90;;;;;;4977767;28;20233;-77
2024/01/13 11:56:14;;;;;;;17.83;8.23;;;-0.50;99.90;;;;;;4974200;28;20203;-77
2024/01/13 11:58:43;;;;;;;20.90;9.23;;;-0.50;99.90;;;;;;4971334;28;20809;-76
2024/01/13 12:01:12;;;;;;;20.25;8.65;;;-0.50;99.90;;;;;;4975894;28;20204;-76
2024/01/13 12:03:43;;;;;;;18.02;8.02;;;-0.60;99.90;;;;;;4974366;28;20211;-76
2024/01/13 12:06:13;;;;;;;21.35;9.00;;;-0.60;99.90;;;;;;4966937;28;20208;-77
2024/01/13 12:08:52;;;;;;;20.10;8.35;;;-0.60;99.90;;;;;;4973805;28;20574;-77
2024/01/13 12:11:22;;;;;;;18.60;9.10;;;-0.60;99.90;;;;;;4978614;28;20234;-77
2024/01/13 12:14:03;;;;;;;17.55;8.75;;;-0.50;99.90;;;;;;4979818;28;20655;-76
2024/01/13 12:16:31;;;;;;;17.40;7.40;;;-0.50;99.90;;;;;;4972549;28;20264;-77
2024/01/13 12:19:00;;;;;;;19.25;8.60;;;-0.50;99.90;;;;;;4977649;28;20215;-77
2024/01/13 12:21:28;;;;;;;19.13;8.10;;;-0.50;99.90;;;;;;4983077;28;20251;-76
2024/01/13 12:24:09;;;;;;;21.42;9.82;;;-0.50;99.90;;;;;;4973220;28;20228;-76
2024/01/13 12:26:37;;;;;;;20.38;8.23;;;-0.40;99.90;;;;;;4971216;28;20207;-77
2024/01/13 12:29:08;;;;;;;22.33;8.43;;;-0.40;99.90;;;;;;4982445;28;20207;-76
2024/01/13 12:31:36;;;;;;;15.98;6.95;;;-0.60;99.90;;;;;;4980506;28;21812;-76
2024/01/13 12:34:14;;;;;;;18.42;8.02;;;-0.60;99.90;;;;;;4969196;28;20308;-77
2024/01/13 12:36:43;;;;;;;18.80;9.07;;;-0.60;99.90;;;;;;4976463;28;20289;-77
2024/01/13 12:39:13;;;;;;;20.95;8.80;;;-0.60;99.90;;;;;;4977515;28;20328;-78
2024/01/13 12:41:42;;;;;;;18.95;8.20;;;-0.50;99.90;;;;;;4972547;28;20275;-76
2024/01/13 12:44:24;;;;;;;20.48;10.27;;;-0.60;99.90;;;;;;4977317;28;20591;-77